Chocorua, New Hampshire
Current Conditions -  °F | °C
As of 10:54 PM on Friday 24 Oct 2014 (Local Time) from KIZG Reporting Station
Overcast Overcast  
Wind Chill: 47°   Ceiling: 5500
Heat Index: 47°   Visibility: 10mi
Dew Point: 42°   Wind: 0mph
Humidity: 83%   Direction: NA
Pressure: 29.72"   Gusts: NA
Location:  43.88°N, 71.22°W
Report Text: KIZG 250254Z AUTO 00000KT 10SM BKN055 OVC080 08/06 A2972 RMK AO2 SLP067 T00830056 50004
Loading
Personal Weather Stations






























Interactive Weather Map
Tropical Storm Tracking
New forecast layout! Learn more

10-Day Weather Forecast

Advertisements
Track Severe Weather on mobile